La Molina, Catalunya

latitud = 42° 19' 57''N | longitud = 001° 56' 22''E
1703 metros sobre el nivel del mar | datos mensuales

Fecha, hora, temperatura, viento dirección y velocidad, humedad y presión.

  • 22-11-2017 09:00:00 | 2.80°C | Sudeste |7.00 km/h | 52.00% | 829.50 hPa
  • 22-11-2017 08:00:00 | 2.40°C | Sudeste |8.00 km/h | 56.00% | 829.50 hPa
  • 22-11-2017 07:00:00 | 2.10°C | Sudeste |7.00 km/h | 61.00% | 829.90 hPa
  • 22-11-2017 06:00:00 | 1.80°C | Sudeste |8.00 km/h | 58.00% | 830.00 hPa
  • 22-11-2017 05:00:00 | 1.90°C | Sudeste |6.00 km/h | 58.00% | 830.50 hPa
  • 22-11-2017 04:00:00 | 2.20°C | Sudeste |8.00 km/h | 56.00% | 830.70 hPa
  • 22-11-2017 03:00:00 | 2.90°C | Sudeste |6.00 km/h | 58.00% | 831.40 hPa
  • 22-11-2017 02:00:00 | 2.50°C | Sudeste |6.00 km/h | 60.00% | 831.70 hPa
  • 22-11-2017 01:00:00 | 2.80°C | Sudeste |7.00 km/h | 60.00% | 832.20 hPa
  • 22-11-2017 00:00:00 | 3.10°C | Sudeste |5.00 km/h | 57.00% | 832.60 hPa
  • 21-11-2017 23:00:00 | 3.70°C | Sudeste |6.00 km/h | 57.00% | 832.60 hPa
  • 21-11-2017 22:00:00 | 3.20°C | Sudeste |8.00 km/h | 63.00% | 832.90 hPa
  • 21-11-2017 21:00:00 | 3.50°C | Sudeste |8.00 km/h | 63.00% | 832.90 hPa
  • 21-11-2017 20:00:00 | 3.90°C | Sudeste |7.00 km/h | 62.00% | 833.20 hPa
  • 21-11-2017 19:00:00 | 4.40°C | Sudeste |6.00 km/h | 63.00% | 833.20 hPa
  • 21-11-2017 18:00:00 | 5.00°C | Sudeste |7.00 km/h | 62.00% | 833.10 hPa
  • 21-11-2017 17:00:00 | 6.90°C | Este |4.00 km/h | 57.00% | 833.00 hPa
  • 21-11-2017 16:00:00 | 10.80°C | Sudeste |9.00 km/h | 44.00% | 833.00 hPa
  • 21-11-2017 15:00:00 | 11.50°C | Sudeste |5.00 km/h | 46.00% | 833.10 hPa
  • 21-11-2017 14:00:00 | 11.60°C | Sudeste |9.00 km/h | 43.00% | 833.40 hPa
  • 21-11-2017 13:00:00 | 10.00°C | Sur |3.00 km/h | 43.00% | 833.80 hPa
  • 21-11-2017 12:00:00 | 7.90°C | Sudeste |6.00 km/h | 52.00% | 834.30 hPa
  • 21-11-2017 11:00:00 | 7.30°C | Sudeste |6.00 km/h | 52.00% | 834.50 hPa
  • 21-11-2017 10:00:00 | 4.90°C | Sudeste |6.00 km/h | 57.00% | 834.40 hPa